METAR Data
IDs: Format: Raw Decoded Include TAF

Data at: 0828 UTC 03 Aug 2021

KSCK 030755Z AUTO 01006KT 10SM CLR 18/11 A2996 RMK AO2 SLP146 T01780111 403280133
KSCK 030655Z AUTO 31007KT 10SM CLR 19/11 A2996 RMK AO2 SLP146 T01890111
KSCK 030555Z AUTO 31006KT 10SM CLR 20/12 A2997 RMK AO2 SLP146 T02000117 10328 20200 50005
KSCK 030455Z AUTO 30010KT 10SM CLR 22/12 A2997 RMK AO2 SLP147 T02220117
KSCK 030355Z AUTO 29009KT 10SM CLR 26/10 A2996 RMK AO2 SLP143 T02560100
KSCK 030255Z 32011KT 10SM FU CLR 28/08 A2995 RMK AO2 SLP141 T02830083 56008
KSCK 030155Z 32008KT 6SM FU CLR 30/03 A2995 RMK AO2 SLP143 T03000028
KSCK 030055Z 32009KT 6SM FU FEW028 32/03 A2996 RMK AO2 SLP145 T03170028
KSCK 022355Z 31009KT 7SM CLR 33/07 A2997 RMK AO2 SLP149 T03280072 10328 20228 56020
KSCK 022255Z 30010KT 10SM CLR 33/07 A2999 RMK AO2 SLP155 T03280067
KSCK 022155Z 32009KT 10SM CLR 31/12 A3001 RMK AO2 SLP163 T03110117
KSCK 022055Z VRB04KT 10SM CLR 28/12 A3003 RMK AO2 SLP169 T02830117 58015
KSCK 021955Z 34010KT 10SM CLR 27/12 A3005 RMK AO2 SLP176 T02720117
KSCK 021855Z VRB03KT 10SM CLR 24/12 A3006 RMK AO2 SLP180 T02440122
KSCK 021755Z 35005KT 10SM CLR 23/12 A3008 RMK AO2 SLP184 T02330122 10233 20133 58005
KSCK 021655Z 32006KT 10SM CLR 21/13 A3008 RMK AO2 SLP186 T02060128
KSCK 021555Z 36004KT 10SM CLR 18/13 A3008 RMK AO2 SLP187 T01830128
KSCK 021455Z 33006KT 10SM CLR 17/13 A3009 RMK AO2 SLP189 T01670128 52018
KSCK 021355Z 02005KT 4SM BR CLR 14/12 A3007 RMK AO2 SLP182 T01440122
KSCK 021255Z AUTO 35005KT 10SM CLR 14/12 A3006 RMK AO2 SLP178 T01390122
KSCK 021155Z AUTO 01005KT 10SM CLR 14/12 A3004 RMK AO2 SLP171 T01440122 10189 20139 53003
KSCK 021055Z AUTO 35006KT 10SM CLR 15/13 A3003 RMK AO2 SLP169 T01500128
KSCK 020955Z AUTO 35007KT 10SM CLR 16/13 A3003 RMK AO2 SLP167 T01560128
KSCK 020855Z AUTO 34008KT 10SM CLR 16/13 A3003 RMK AO2 SLP168 T01610128 51005
KSCK 020755Z AUTO 35007KT 10SM CLR 17/12 A3003 RMK AO2 SLP168 T01720122 403280150
KSCK 020655Z AUTO 34008KT 10SM CLR 18/12 A3002 RMK AO2 SLP166 T01780122
KSCK 020555Z AUTO 32006KT 10SM CLR 19/12 A3001 RMK AO2 SLP162 T01890117 10322 20189 51018
KSCK 020455Z AUTO 31010KT 10SM CLR 20/12 A3000 RMK AO2 SLP159 T02000117
KSCK 020355Z AUTO 31011KT 10SM CLR 22/12 A2998 RMK AO2 SLP151 T02170122
KSCK 020255Z 32013KT 10SM CLR 25/11 A2996 RMK AO2 SLP144 T02500111 53005
KSCK 020155Z 33013KT 10SM CLR 28/12 A2995 RMK AO2 SLP140 T02830122
KSCK 020055Z 32013KT 10SM CLR 31/13 A2994 RMK AO2 SLP138 T03110133
KSCK 012355Z 32012KT 10SM CLR 32/11 A2994 RMK AO2 SLP139 T03220111 10328 20250 56012
KSCK 012255Z 30010KT 10SM CLR 33/11 A2995 RMK AO2 SLP140 T03280106
KSCK 012155Z 29009KT 10SM CLR 32/08 A2996 RMK AO2 SLP145 T03220083
KSCK 012055Z 30006KT 10SM CLR 31/10 A2998 RMK AO2 SLP151 T03110100 58014